sensor_id;sensor_type;location;lat;lon;timestamp;pressure;altitude;pressure_sealevel;temperature;humidity
8705;BME280;4389;41.932;25.904;2022-09-11T00:00:39;100063.47;;;23.67;80.04
8705;BME280;4389;41.932;25.904;2022-09-11T00:03:07;100062.88;;;23.65;80.02
8705;BME280;4389;41.932;25.904;2022-09-11T00:05:36;100067.09;;;23.61;80.39
8705;BME280;4389;41.932;25.904;2022-09-11T00:08:04;100075.66;;;23.58;80.57
8705;BME280;4389;41.932;25.904;2022-09-11T00:10:34;100072.81;;;23.53;80.70
8705;BME280;4389;41.932;25.904;2022-09-11T00:13:02;100068.47;;;23.52;80.80
8705;BME280;4389;41.932;25.904;2022-09-11T00:15:35;100070.47;;;23.57;80.89
8705;BME280;4389;41.932;25.904;2022-09-11T00:18:02;100067.56;;;23.58;80.96
8705;BME280;4389;41.932;25.904;2022-09-11T00:20:29;100067.00;;;23.68;80.77
8705;BME280;4389;41.932;25.904;2022-09-11T00:22:58;100064.88;;;23.70;80.61
8705;BME280;4389;41.932;25.904;2022-09-11T00:25:28;100059.41;;;23.47;81.44
8705;BME280;4389;41.932;25.904;2022-09-11T00:27:55;100067.84;;;23.39;82.00
8705;BME280;4389;41.932;25.904;2022-09-11T00:30:22;100069.28;;;23.23;82.81
8705;BME280;4389;41.932;25.904;2022-09-11T00:32:50;100071.16;;;23.05;83.92
8705;BME280;4389;41.932;25.904;2022-09-11T00:35:17;100073.69;;;23.00;84.20
8705;BME280;4389;41.932;25.904;2022-09-11T00:37:44;100071.66;;;22.95;84.97
8705;BME280;4389;41.932;25.904;2022-09-11T00:40:12;100067.50;;;22.99;85.05
8705;BME280;4389;41.932;25.904;2022-09-11T00:42:40;100063.72;;;23.00;84.96
8705;BME280;4389;41.932;25.904;2022-09-11T00:45:16;100064.00;;;23.10;84.48
8705;BME280;4389;41.932;25.904;2022-09-11T00:47:46;100059.44;;;23.11;84.01
8705;BME280;4389;41.932;25.904;2022-09-11T00:50:18;100061.03;;;23.18;83.78
8705;BME280;4389;41.932;25.904;2022-09-11T00:52:49;100063.28;;;23.21;83.90
8705;BME280;4389;41.932;25.904;2022-09-11T00:55:17;100067.28;;;23.19;83.79
8705;BME280;4389;41.932;25.904;2022-09-11T00:57:50;100065.97;;;23.03;84.74
8705;BME280;4389;41.932;25.904;2022-09-11T01:00:17;100064.78;;;22.81;85.94
8705;BME280;4389;41.932;25.904;2022-09-11T01:02:47;100063.66;;;22.71;86.74
8705;BME280;4389;41.932;25.904;2022-09-11T01:05:17;100068.53;;;22.80;86.46
8705;BME280;4389;41.932;25.904;2022-09-11T01:07:47;100059.38;;;22.81;86.18
8705;BME280;4389;41.932;25.904;2022-09-11T01:10:17;100053.81;;;22.58;87.78
8705;BME280;4389;41.932;25.904;2022-09-11T01:12:50;100054.78;;;22.46;88.25
8705;BME280;4389;41.932;25.904;2022-09-11T01:15:21;100050.81;;;22.48;88.33
8705;BME280;4389;41.932;25.904;2022-09-11T01:17:54;100058.09;;;22.41;88.87
8705;BME280;4389;41.932;25.904;2022-09-11T01:20:32;100059.34;;;22.45;88.59
8705;BME280;4389;41.932;25.904;2022-09-11T01:23:13;100063.41;;;22.54;87.88
8705;BME280;4389;41.932;25.904;2022-09-11T01:25:56;100060.78;;;22.66;87.41
8705;BME280;4389;41.932;25.904;2022-09-11T01:28:30;100057.06;;;22.67;86.88
8705;BME280;4389;41.932;25.904;2022-09-11T01:31:05;100053.00;;;22.58;87.32
8705;BME280;4389;41.932;25.904;2022-09-11T01:33:38;100054.78;;;22.46;88.73
8705;BME280;4389;41.932;25.904;2022-09-11T01:36:09;100055.69;;;22.33;89.26
8705;BME280;4389;41.932;25.904;2022-09-11T01:38:42;100054.66;;;22.34;89.76
8705;BME280;4389;41.932;25.904;2022-09-11T01:41:14;100051.59;;;22.31;89.26
8705;BME280;4389;41.932;25.904;2022-09-11T01:43:49;100058.41;;;22.09;90.52
8705;BME280;4389;41.932;25.904;2022-09-11T01:46:20;100053.91;;;22.03;90.95
8705;BME280;4389;41.932;25.904;2022-09-11T01:48:52;100054.72;;;22.03;91.15
8705;BME280;4389;41.932;25.904;2022-09-11T01:51:25;100058.06;;;21.99;91.68
8705;BME280;4389;41.932;25.904;2022-09-11T01:53:56;100057.69;;;21.95;91.70
8705;BME280;4389;41.932;25.904;2022-09-11T01:56:28;100053.53;;;21.99;92.24
8705;BME280;4389;41.932;25.904;2022-09-11T01:58:59;100052.03;;;22.03;91.67
8705;BME280;4389;41.932;25.904;2022-09-11T02:01:32;100048.13;;;21.99;91.98
8705;BME280;4389;41.932;25.904;2022-09-11T02:04:03;100048.28;;;22.04;91.41
8705;BME280;4389;41.932;25.904;2022-09-11T02:06:35;100046.44;;;22.05;91.53
8705;BME280;4389;41.932;25.904;2022-09-11T02:09:08;100048.06;;;22.06;91.38
8705;BME280;4389;41.932;25.904;2022-09-11T02:11:38;100046.81;;;22.08;91.48
8705;BME280;4389;41.932;25.904;2022-09-11T02:14:14;100045.94;;;22.14;90.92
8705;BME280;4389;41.932;25.904;2022-09-11T02:16:47;100046.75;;;22.15;90.80
8705;BME280;4389;41.932;25.904;2022-09-11T02:19:16;100057.00;;;22.06;91.36
8705;BME280;4389;41.932;25.904;2022-09-11T02:21:44;100045.66;;;21.98;91.02
8705;BME280;4389;41.932;25.904;2022-09-11T02:24:13;100049.53;;;22.02;90.88
8705;BME280;4389;41.932;25.904;2022-09-11T02:26:43;100052.06;;;21.72;92.58
8705;BME280;4389;41.932;25.904;2022-09-11T02:29:14;100047.97;;;21.63;93.13
8705;BME280;4389;41.932;25.904;2022-09-11T02:31:41;100053.44;;;21.50;93.98
8705;BME280;4389;41.932;25.904;2022-09-11T02:34:09;100045.59;;;21.42;95.17
8705;BME280;4389;41.932;25.904;2022-09-11T02:36:46;100047.25;;;21.43;95.61
8705;BME280;4389;41.932;25.904;2022-09-11T02:39:38;100058.56;;;21.52;94.88
8705;BME280;4389;41.932;25.904;2022-09-11T02:42:25;100052.56;;;21.56;95.32
8705;BME280;4389;41.932;25.904;2022-09-11T02:45:04;100049.59;;;21.64;94.73
8705;BME280;4389;41.932;25.904;2022-09-11T02:47:41;100053.38;;;21.57;95.05
8705;BME280;4389;41.932;25.904;2022-09-11T02:50:17;100046.94;;;21.58;94.78
8705;BME280;4389;41.932;25.904;2022-09-11T02:52:52;100050.47;;;21.58;94.42
8705;BME280;4389;41.932;25.904;2022-09-11T02:55:30;100052.97;;;21.53;94.38
8705;BME280;4389;41.932;25.904;2022-09-11T02:58:04;100055.66;;;21.22;96.14
8705;BME280;4389;41.932;25.904;2022-09-11T03:00:34;100052.41;;;21.07;96.70
8705;BME280;4389;41.932;25.904;2022-09-11T03:03:02;100057.09;;;21.18;97.01
8705;BME280;4389;41.932;25.904;2022-09-11T03:05:29;100046.53;;;21.23;95.87
8705;BME280;4389;41.932;25.904;2022-09-11T03:07:56;100046.28;;;21.31;95.49
8705;BME280;4389;41.932;25.904;2022-09-11T03:10:24;100051.06;;;21.29;95.07
8705;BME280;4389;41.932;25.904;2022-09-11T03:12:52;100052.31;;;21.27;95.26
8705;BME280;4389;41.932;25.904;2022-09-11T03:15:19;100057.31;;;21.17;95.20
8705;BME280;4389;41.932;25.904;2022-09-11T03:17:48;100053.66;;;20.98;96.09
8705;BME280;4389;41.932;25.904;2022-09-11T03:20:15;100057.00;;;20.94;96.64
8705;BME280;4389;41.932;25.904;2022-09-11T03:22:43;100057.84;;;20.94;97.16
8705;BME280;4389;41.932;25.904;2022-09-11T03:25:10;100065.66;;;21.02;96.92
8705;BME280;4389;41.932;25.904;2022-09-11T03:27:37;100063.56;;;21.11;97.12
8705;BME280;4389;41.932;25.904;2022-09-11T03:30:06;100064.13;;;21.19;96.41
8705;BME280;4389;41.932;25.904;2022-09-11T03:32:33;100068.91;;;21.17;96.87
8705;BME280;4389;41.932;25.904;2022-09-11T03:35:01;100070.16;;;21.21;96.48
8705;BME280;4389;41.932;25.904;2022-09-11T03:37:28;100070.97;;;21.22;96.49
8705;BME280;4389;41.932;25.904;2022-09-11T03:39:55;100071.81;;;21.22;96.23
8705;BME280;4389;41.932;25.904;2022-09-11T03:42:22;100082.63;;;21.09;96.07
8705;BME280;4389;41.932;25.904;2022-09-11T03:44:49;100074.59;;;20.96;96.69
8705;BME280;4389;41.932;25.904;2022-09-11T03:47:16;100082.88;;;20.95;97.05
8705;BME280;4389;41.932;25.904;2022-09-11T03:49:44;100085.56;;;20.95;96.99
8705;BME280;4389;41.932;25.904;2022-09-11T03:52:14;100098.00;;;20.89;97.10
8705;BME280;4389;41.932;25.904;2022-09-11T03:54:40;100092.19;;;20.86;97.48
8705;BME280;4389;41.932;25.904;2022-09-11T03:57:07;100097.56;;;20.86;97.10
8705;BME280;4389;41.932;25.904;2022-09-11T03:59:34;100095.06;;;20.84;97.40
8705;BME280;4389;41.932;25.904;2022-09-11T04:02:01;100091.78;;;20.95;96.71
8705;BME280;4389;41.932;25.904;2022-09-11T04:04:28;100103.34;;;21.02;96.41
8705;BME280;4389;41.932;25.904;2022-09-11T04:06:55;100109.97;;;21.06;96.27
8705;BME280;4389;41.932;25.904;2022-09-11T04:09:24;100108.28;;;21.05;96.44
8705;BME280;4389;41.932;25.904;2022-09-11T04:11:51;100107.06;;;21.01;96.44
8705;BME280;4389;41.932;25.904;2022-09-11T04:14:18;100116.38;;;21.05;96.60
8705;BME280;4389;41.932;25.904;2022-09-11T04:16:47;100106.16;;;21.27;95.81
8705;BME280;4389;41.932;25.904;2022-09-11T04:19:13;100112.28;;;21.47;94.96
8705;BME280;4389;41.932;25.904;2022-09-11T04:21:41;100112.66;;;21.50;95.03
8705;BME280;4389;41.932;25.904;2022-09-11T04:24:09;100120.50;;;21.58;94.41
8705;BME280;4389;41.932;25.904;2022-09-11T04:26:37;100115.50;;;21.68;94.23
8705;BME280;4389;41.932;25.904;2022-09-11T04:29:04;100111.66;;;21.82;93.56
8705;BME280;4389;41.932;25.904;2022-09-11T04:31:33;100125.75;;;21.84;93.15
8705;BME280;4389;41.932;25.904;2022-09-11T04:34:00;100122.81;;;21.92;92.82
8705;BME280;4389;41.932;25.904;2022-09-11T04:36:27;100125.66;;;21.97;92.65
8705;BME280;4389;41.932;25.904;2022-09-11T04:38:56;100123.34;;;22.07;91.82
8705;BME280;4389;41.932;25.904;2022-09-11T04:41:25;100125.66;;;21.97;92.46
8705;BME280;4389;41.932;25.904;2022-09-11T04:43:54;100131.69;;;21.99;92.31
8705;BME280;4389;41.932;25.904;2022-09-11T04:46:22;100130.28;;;21.90;92.97
8705;BME280;4389;41.932;25.904;2022-09-11T04:48:51;100125.66;;;21.97;93.28
8705;BME280;4389;41.932;25.904;2022-09-11T04:51:20;100123.94;;;22.09;93.01
8705;BME280;4389;41.932;25.904;2022-09-11T04:53:48;100120.94;;;22.24;92.11
8705;BME280;4389;41.932;25.904;2022-09-11T04:56:16;100128.00;;;22.49;90.41
8705;BME280;4389;41.932;25.904;2022-09-11T04:58:45;100128.91;;;22.61;89.27
8705;BME280;4389;41.932;25.904;2022-09-11T05:01:15;100140.91;;;22.65;88.36
8705;BME280;4389;41.932;25.904;2022-09-11T05:03:42;100134.19;;;22.74;88.56
8705;BME280;4389;41.932;25.904;2022-09-11T05:06:11;100128.66;;;22.87;87.48
8705;BME280;4389;41.932;25.904;2022-09-11T05:08:41;100119.38;;;23.01;87.30
8705;BME280;4389;41.932;25.904;2022-09-11T05:11:10;100124.31;;;23.04;86.09
8705;BME280;4389;41.932;25.904;2022-09-11T05:13:38;100131.69;;;23.15;85.51
8705;BME280;4389;41.932;25.904;2022-09-11T05:16:06;100129.16;;;23.20;84.88
8705;BME280;4389;41.932;25.904;2022-09-11T05:18:35;100131.84;;;23.38;84.39
8705;BME280;4389;41.932;25.904;2022-09-11T05:21:04;100128.81;;;23.64;82.94
8705;BME280;4389;41.932;25.904;2022-09-11T05:23:31;100138.22;;;23.91;82.05
8705;BME280;4389;41.932;25.904;2022-09-11T05:25:59;100130.94;;;24.03;80.80
8705;BME280;4389;41.932;25.904;2022-09-11T05:28:26;100128.00;;;23.93;80.41
8705;BME280;4389;41.932;25.904;2022-09-11T05:30:55;100126.09;;;23.94;80.59
8705;BME280;4389;41.932;25.904;2022-09-11T05:33:23;100119.78;;;23.70;81.41
8705;BME280;4389;41.932;25.904;2022-09-11T05:35:52;100124.56;;;23.86;81.11
8705;BME280;4389;41.932;25.904;2022-09-11T05:38:20;100128.00;;;23.75;80.76
8705;BME280;4389;41.932;25.904;2022-09-11T05:40:49;100125.53;;;24.03;80.72
8705;BME280;4389;41.932;25.904;2022-09-11T05:43:17;100117.88;;;24.41;79.15
8705;BME280;4389;41.932;25.904;2022-09-11T05:45:52;100125.78;;;25.00;75.81
8705;BME280;4389;41.932;25.904;2022-09-11T05:48:19;100117.75;;;24.82;75.62
8705;BME280;4389;41.932;25.904;2022-09-11T05:50:53;100123.66;;;24.67;76.19
8705;BME280;4389;41.932;25.904;2022-09-11T05:53:20;100120.53;;;24.18;78.41
8705;BME280;4389;41.932;25.904;2022-09-11T05:55:47;100125.66;;;23.97;79.11
8705;BME280;4389;41.932;25.904;2022-09-11T05:58:14;100124.03;;;24.07;78.40
8705;BME280;4389;41.932;25.904;2022-09-11T06:00:42;100122.06;;;24.14;78.43
8705;BME280;4389;41.932;25.904;2022-09-11T06:03:11;100128.19;;;24.21;78.25
8705;BME280;4389;41.932;25.904;2022-09-11T06:05:38;100118.81;;;24.35;77.49
8705;BME280;4389;41.932;25.904;2022-09-11T06:08:07;100115.16;;;24.41;76.60
8705;BME280;4389;41.932;25.904;2022-09-11T06:10:34;100125.09;;;24.06;77.34
8705;BME280;4389;41.932;25.904;2022-09-11T06:13:01;100114.53;;;24.16;77.46
8705;BME280;4389;41.932;25.904;2022-09-11T06:15:28;100119.59;;;24.35;77.05
8705;BME280;4389;41.932;25.904;2022-09-11T06:17:56;100113.44;;;24.58;76.89
8705;BME280;4389;41.932;25.904;2022-09-11T06:20:23;100107.06;;;24.64;76.19
8705;BME280;4389;41.932;25.904;2022-09-11T06:22:50;100110.34;;;24.89;75.80
8705;BME280;4389;41.932;25.904;2022-09-11T06:25:20;100124.16;;;24.76;72.75
8705;BME280;4389;41.932;25.904;2022-09-11T06:27:46;100114.84;;;24.72;73.16
8705;BME280;4389;41.932;25.904;2022-09-11T06:30:14;100108.25;;;24.91;75.10
8705;BME280;4389;41.932;25.904;2022-09-11T06:32:41;100115.25;;;25.15;73.71
8705;BME280;4389;41.932;25.904;2022-09-11T06:35:08;100115.75;;;25.12;70.10
8705;BME280;4389;41.932;25.904;2022-09-11T06:37:36;100120.31;;;25.23;70.26
8705;BME280;4389;41.932;25.904;2022-09-11T06:40:03;100126.91;;;25.04;70.41
8705;BME280;4389;41.932;25.904;2022-09-11T06:42:32;100122.72;;;24.96;70.63
8705;BME280;4389;41.932;25.904;2022-09-11T06:44:58;100117.84;;;25.10;71.12
8705;BME280;4389;41.932;25.904;2022-09-11T06:47:26;100115.38;;;25.31;70.05
8705;BME280;4389;41.932;25.904;2022-09-11T06:49:54;100113.84;;;25.24;69.38
8705;BME280;4389;41.932;25.904;2022-09-11T06:52:21;100127.94;;;25.49;69.12
8705;BME280;4389;41.932;25.904;2022-09-11T06:54:48;100125.78;;;25.51;67.71
8705;BME280;4389;41.932;25.904;2022-09-11T06:57:15;100125.16;;;25.21;68.89
8705;BME280;4389;41.932;25.904;2022-09-11T06:59:43;100125.16;;;25.21;69.75
8705;BME280;4389;41.932;25.904;2022-09-11T07:02:11;100119.25;;;25.24;69.50
8705;BME280;4389;41.932;25.904;2022-09-11T07:04:38;100125.31;;;25.54;68.20
8705;BME280;4389;41.932;25.904;2022-09-11T07:07:05;100131.66;;;25.87;66.83
8705;BME280;4389;41.932;25.904;2022-09-11T07:09:32;100125.50;;;26.20;66.02
8705;BME280;4389;41.932;25.904;2022-09-11T07:11:58;100124.00;;;26.29;64.83
8705;BME280;4389;41.932;25.904;2022-09-11T07:14:25;100129.94;;;26.26;65.50
8705;BME280;4389;41.932;25.904;2022-09-11T07:16:53;100135.38;;;26.26;64.84
8705;BME280;4389;41.932;25.904;2022-09-11T07:19:20;100135.69;;;26.46;65.27
8705;BME280;4389;41.932;25.904;2022-09-11T07:21:49;100132.34;;;26.55;65.87
8705;BME280;4389;41.932;25.904;2022-09-11T07:24:16;100141.47;;;26.33;64.94
8705;BME280;4389;41.932;25.904;2022-09-11T07:26:43;100140.78;;;26.26;65.16
8705;BME280;4389;41.932;25.904;2022-09-11T07:29:10;100138.25;;;26.36;65.13
8705;BME280;4389;41.932;25.904;2022-09-11T07:31:38;100139.16;;;26.58;65.63
8705;BME280;4389;41.932;25.904;2022-09-11T07:34:08;100142.72;;;26.58;63.17
8705;BME280;4389;41.932;25.904;2022-09-11T07:36:35;100143.75;;;26.74;62.04
8705;BME280;4389;41.932;25.904;2022-09-11T07:39:03;100141.66;;;26.97;61.41
8705;BME280;4389;41.932;25.904;2022-09-11T07:41:30;100135.16;;;27.15;60.96
8705;BME280;4389;41.932;25.904;2022-09-11T07:43:58;100142.38;;;27.26;60.90
8705;BME280;4389;41.932;25.904;2022-09-11T07:46:26;100148.63;;;27.26;60.05
8705;BME280;4389;41.932;25.904;2022-09-11T07:48:54;100149.56;;;27.37;59.56
8705;BME280;4389;41.932;25.904;2022-09-11T07:51:22;100135.34;;;27.30;60.10
8705;BME280;4389;41.932;25.904;2022-09-11T07:53:51;100139.56;;;27.64;58.74
8705;BME280;4389;41.932;25.904;2022-09-11T07:56:20;100147.00;;;27.95;57.42
8705;BME280;4389;41.932;25.904;2022-09-11T07:58:49;100147.44;;;28.08;57.58
8705;BME280;4389;41.932;25.904;2022-09-11T08:01:18;100142.53;;;28.37;56.09
8705;BME280;4389;41.932;25.904;2022-09-11T08:03:45;100141.00;;;28.46;55.79
8705;BME280;4389;41.932;25.904;2022-09-11T08:06:16;100141.75;;;28.41;56.17
8705;BME280;4389;41.932;25.904;2022-09-11T08:08:45;100141.13;;;28.34;55.67
8705;BME280;4389;41.932;25.904;2022-09-11T08:11:14;100126.78;;;28.39;54.25
8705;BME280;4389;41.932;25.904;2022-09-11T08:13:42;100134.88;;;28.34;54.32
8705;BME280;4389;41.932;25.904;2022-09-11T08:16:09;100126.75;;;28.07;53.06
8705;BME280;4389;41.932;25.904;2022-09-11T08:18:35;100127.81;;;27.80;52.20
8705;BME280;4389;41.932;25.904;2022-09-11T08:21:04;100128.69;;;27.64;53.70
8705;BME280;4389;41.932;25.904;2022-09-11T08:23:32;100117.38;;;27.98;53.18
8705;BME280;4389;41.932;25.904;2022-09-11T08:26:05;100119.69;;;28.38;52.15
8705;BME280;4389;41.932;25.904;2022-09-11T08:28:33;100118.50;;;28.60;50.78
8705;BME280;4389;41.932;25.904;2022-09-11T08:31:04;100128.13;;;28.73;51.40
8705;BME280;4389;41.932;25.904;2022-09-11T08:33:31;100123.66;;;28.57;50.90
8705;BME280;4389;41.932;25.904;2022-09-11T08:35:59;100113.44;;;28.11;52.32
8705;BME280;4389;41.932;25.904;2022-09-11T08:38:28;100110.84;;;28.26;51.58
8705;BME280;4389;41.932;25.904;2022-09-11T08:40:55;100106.50;;;28.30;51.29
8705;BME280;4389;41.932;25.904;2022-09-11T08:43:27;100103.19;;;28.23;52.13
8705;BME280;4389;41.932;25.904;2022-09-11T08:45:59;100096.34;;;28.47;52.01
8705;BME280;4389;41.932;25.904;2022-09-11T08:48:36;100092.72;;;28.78;51.06
8705;BME280;4389;41.932;25.904;2022-09-11T08:51:08;100095.47;;;28.78;50.51
8705;BME280;4389;41.932;25.904;2022-09-11T08:53:38;100088.34;;;29.13;49.74
8705;BME280;4389;41.932;25.904;2022-09-11T08:56:08;100086.69;;;29.17;49.66
8705;BME280;4389;41.932;25.904;2022-09-11T08:58:43;100082.56;;;29.05;49.30
8705;BME280;4389;41.932;25.904;2022-09-11T09:01:20;100085.38;;;29.25;49.04
8705;BME280;4389;41.932;25.904;2022-09-11T09:04:03;100076.72;;;29.38;47.39
8705;BME280;4389;41.932;25.904;2022-09-11T09:06:45;100071.28;;;29.48;47.14
8705;BME280;4389;41.932;25.904;2022-09-11T09:09:22;100072.38;;;29.47;47.49
8705;BME280;4389;41.932;25.904;2022-09-11T09:11:58;100066.31;;;29.35;47.75
8705;BME280;4389;41.932;25.904;2022-09-11T09:17:22;100066.75;;;29.07;47.48
8705;BME280;4389;41.932;25.904;2022-09-11T09:19:55;100057.41;;;29.59;46.96
8705;BME280;4389;41.932;25.904;2022-09-11T09:22:28;100058.00;;;29.96;46.14
8705;BME280;4389;41.932;25.904;2022-09-11T09:24:59;100050.94;;;30.25;45.24
8705;BME280;4389;41.932;25.904;2022-09-11T09:27:32;100050.06;;;30.74;44.07
8705;BME280;4389;41.932;25.904;2022-09-11T09:30:04;100049.50;;;30.87;42.94
8705;BME280;4389;41.932;25.904;2022-09-11T09:32:35;100046.66;;;31.22;42.50
8705;BME280;4389;41.932;25.904;2022-09-11T09:35:14;100050.44;;;31.21;41.87
8705;BME280;4389;41.932;25.904;2022-09-11T09:37:42;100045.56;;;31.18;41.65
8705;BME280;4389;41.932;25.904;2022-09-11T09:40:14;100039.50;;;31.21;41.69
8705;BME280;4389;41.932;25.904;2022-09-11T09:45:48;100040.03;;;31.28;41.25
8705;BME280;4389;41.932;25.904;2022-09-11T09:48:19;100033.88;;;30.98;41.78
8705;BME280;4389;41.932;25.904;2022-09-11T09:50:46;100018.91;;;30.75;42.43
8705;BME280;4389;41.932;25.904;2022-09-11T09:53:18;100020.59;;;30.51;43.23
8705;BME280;4389;41.932;25.904;2022-09-11T09:55:52;100017.81;;;30.61;43.00
8705;BME280;4389;41.932;25.904;2022-09-11T09:58:22;100018.19;;;30.15;43.64
8705;BME280;4389;41.932;25.904;2022-09-11T10:00:51;100017.88;;;29.92;44.05
8705;BME280;4389;41.932;25.904;2022-09-11T10:03:20;100020.63;;;30.17;44.28
8705;BME280;4389;41.932;25.904;2022-09-11T10:05:48;100009.09;;;30.49;42.52
8705;BME280;4389;41.932;25.904;2022-09-11T10:08:26;100007.44;;;30.58;41.20
8705;BME280;4389;41.932;25.904;2022-09-11T10:10:55;100001.22;;;31.21;40.38
8705;BME280;4389;41.932;25.904;2022-09-11T10:13:23;100004.31;;;31.53;39.66
8705;BME280;4389;41.932;25.904;2022-09-11T10:15:55;100009.84;;;31.87;39.54
8705;BME280;4389;41.932;25.904;2022-09-11T10:18:35;100002.38;;;31.92;39.74
8705;BME280;4389;41.932;25.904;2022-09-11T10:21:24;100005.66;;;31.56;40.90
8705;BME280;4389;41.932;25.904;2022-09-11T10:23:55;99999.13;;;31.47;40.73
8705;BME280;4389;41.932;25.904;2022-09-11T10:26:28;99993.91;;;31.50;40.70
8705;BME280;4389;41.932;25.904;2022-09-11T10:29:00;99993.91;;;31.50;40.08
8705;BME280;4389;41.932;25.904;2022-09-11T10:31:33;99995.69;;;31.31;40.44
8705;BME280;4389;41.932;25.904;2022-09-11T10:34:02;99995.56;;;31.51;39.85
8705;BME280;4389;41.932;25.904;2022-09-11T10:36:30;99998.16;;;31.76;39.43
8705;BME280;4389;41.932;25.904;2022-09-11T10:39:00;99997.00;;;31.82;39.37
8705;BME280;4389;41.932;25.904;2022-09-11T10:41:28;99996.06;;;31.58;40.39
8705;BME280;4389;41.932;25.904;2022-09-11T10:43:59;99997.41;;;31.17;40.91
8705;BME280;4389;41.932;25.904;2022-09-11T10:46:30;99998.78;;;31.10;41.17
8705;BME280;4389;41.932;25.904;2022-09-11T10:49:07;99999.03;;;31.23;40.64
8705;BME280;4389;41.932;25.904;2022-09-11T10:51:36;99993.50;;;31.33;40.46
8705;BME280;4389;41.932;25.904;2022-09-11T10:54:19;99993.88;;;31.55;39.76
8705;BME280;4389;41.932;25.904;2022-09-11T10:57:00;99995.13;;;31.78;39.65
8705;BME280;4389;41.932;25.904;2022-09-11T10:59:36;99996.47;;;31.80;39.41
8705;BME280;4389;41.932;25.904;2022-09-11T11:02:16;99996.09;;;32.25;38.94
8705;BME280;4389;41.932;25.904;2022-09-11T11:04:46;99996.84;;;32.59;38.23
8705;BME280;4389;41.932;25.904;2022-09-11T11:07:24;99993.56;;;33.04;36.79
8705;BME280;4389;41.932;25.904;2022-09-11T11:10:02;99999.56;;;33.06;36.71
8705;BME280;4389;41.932;25.904;2022-09-11T11:12:44;99987.41;;;33.12;37.07
8705;BME280;4389;41.932;25.904;2022-09-11T11:15:28;99992.13;;;33.30;36.45
8705;BME280;4389;41.932;25.904;2022-09-11T11:18:11;99982.28;;;33.29;35.94
8705;BME280;4389;41.932;25.904;2022-09-11T11:20:51;99975.84;;;32.73;36.03
8705;BME280;4389;41.932;25.904;2022-09-11T11:23:32;99965.78;;;32.40;37.27
8705;BME280;4389;41.932;25.904;2022-09-11T11:26:16;99954.31;;;31.81;37.67
8705;BME280;4389;41.932;25.904;2022-09-11T11:29:04;99965.22;;;31.86;38.50
8705;BME280;4389;41.932;25.904;2022-09-11T11:31:44;99960.59;;;32.10;37.69
8705;BME280;4389;41.932;25.904;2022-09-11T11:34:22;99959.59;;;32.01;38.51
8705;BME280;4389;41.932;25.904;2022-09-11T11:37:02;99955.94;;;32.39;38.14
8705;BME280;4389;41.932;25.904;2022-09-11T11:39:35;99953.19;;;32.63;37.76
8705;BME280;4389;41.932;25.904;2022-09-11T11:42:11;99953.47;;;32.61;38.46
8705;BME280;4389;41.932;25.904;2022-09-11T11:44:43;99945.13;;;32.71;37.70
8705;BME280;4389;41.932;25.904;2022-09-11T11:47:12;99947.94;;;32.66;37.54
8705;BME280;4389;41.932;25.904;2022-09-11T11:49:51;99949.38;;;33.06;36.71
8705;BME280;4389;41.932;25.904;2022-09-11T11:52:33;99939.03;;;32.79;36.46
8705;BME280;4389;41.932;25.904;2022-09-11T11:55:13;99936.22;;;32.84;36.98
8705;BME280;4389;41.932;25.904;2022-09-11T11:57:46;99935.47;;;32.55;37.20
8705;BME280;4389;41.932;25.904;2022-09-11T12:00:15;99928.34;;;32.31;37.13
8705;BME280;4389;41.932;25.904;2022-09-11T12:02:55;99934.25;;;32.14;37.99
8705;BME280;4389;41.932;25.904;2022-09-11T12:05:26;99924.34;;;32.18;37.93
8705;BME280;4389;41.932;25.904;2022-09-11T12:07:54;99927.69;;;31.87;37.68
8705;BME280;4389;41.932;25.904;2022-09-11T12:10:27;99922.69;;;31.60;38.19
8705;BME280;4389;41.932;25.904;2022-09-11T12:12:57;99916.59;;;31.68;38.63
8705;BME280;4389;41.932;25.904;2022-09-11T12:15:26;99910.59;;;31.66;38.73
8705;BME280;4389;41.932;25.904;2022-09-11T12:18:04;99916.06;;;31.66;38.27
8705;BME280;4389;41.932;25.904;2022-09-11T12:20:35;99908.94;;;31.32;39.49
8705;BME280;4389;41.932;25.904;2022-09-11T12:23:07;99900.28;;;31.58;38.84
8705;BME280;4389;41.932;25.904;2022-09-11T12:26:17;99901.50;;;32.04;38.47
8705;BME280;4389;41.932;25.904;2022-09-11T12:28:44;99896.34;;;32.21;37.43
8705;BME280;4389;41.932;25.904;2022-09-11T12:31:12;99894.50;;;32.17;37.68
8705;BME280;4389;41.932;25.904;2022-09-11T12:33:54;99887.84;;;31.99;37.68
8705;BME280;4389;41.932;25.904;2022-09-11T12:36:46;99872.00;;;31.96;37.19
8705;BME280;4389;41.932;25.904;2022-09-11T12:39:27;99881.75;;;31.79;37.68
8705;BME280;4389;41.932;25.904;2022-09-11T12:45:00;99879.69;;;31.32;38.83
8705;BME280;4389;41.932;25.904;2022-09-11T12:47:32;99881.28;;;31.38;37.86
8705;BME280;4389;41.932;25.904;2022-09-11T12:50:14;99876.34;;;31.35;38.06
8705;BME280;4389;41.932;25.904;2022-09-11T12:52:47;99877.44;;;31.39;37.64
8705;BME280;4389;41.932;25.904;2022-09-11T12:55:29;99871.00;;;31.54;36.94
8705;BME280;4389;41.932;25.904;2022-09-11T12:58:00;99873.41;;;31.60;36.75
8705;BME280;4389;41.932;25.904;2022-09-11T13:00:34;99864.88;;;31.67;36.81
8705;BME280;4389;41.932;25.904;2022-09-11T13:03:02;99859.63;;;31.75;36.90
8705;BME280;4389;41.932;25.904;2022-09-11T13:05:34;99867.19;;;31.83;36.44
8705;BME280;4389;41.932;25.904;2022-09-11T13:08:05;99874.09;;;32.04;36.47
8705;BME280;4389;41.932;25.904;2022-09-11T13:10:34;99871.31;;;32.09;34.93
8705;BME280;4389;41.932;25.904;2022-09-11T13:13:02;99863.00;;;32.14;34.63
8705;BME280;4389;41.932;25.904;2022-09-11T13:15:35;99861.81;;;32.25;35.62
8705;BME280;4389;41.932;25.904;2022-09-11T13:18:26;99856.16;;;32.40;35.53
8705;BME280;4389;41.932;25.904;2022-09-11T13:21:12;99859.88;;;32.49;35.31
8705;BME280;4389;41.932;25.904;2022-09-11T13:23:40;99861.13;;;32.80;33.92
8705;BME280;4389;41.932;25.904;2022-09-11T13:26:13;99862.81;;;32.95;33.00
8705;BME280;4389;41.932;25.904;2022-09-11T13:28:45;99858.84;;;32.45;33.67
8705;BME280;4389;41.932;25.904;2022-09-11T13:31:16;99850.41;;;32.60;33.04